OAKB/KBL METAR and TAF weather

Enter ICAO airport designator
Station Type Date Time Source
OAKB METAR 2020/09/26 22:50 UTC NOAA

OAKB 262250Z VRB02KT 8000 SCT060 16/09 Q1016 RMK A3001 BLU BLU


Station Type Date Time Source
OAKB Decoded METAR 2020/09/26 22:50 UTC NOAA

Kabul Airport, Afghanistan (OAKB) 34-38N 069-12E
Sep 26, 2020 - 06:50 PM EDT / 2020.09.26 2250 UTC
Wind: Variable at 2 MPH (2 KT):0
Visibility: 4 mile(s):0
Sky conditions: partly cloudy
Temperature: 60 F (16 C)
Dew Point: 48 F (9 C)
Relative Humidity: 63%
Pressure (altimeter): 30.00 in. Hg (1016 hPa)
ob: OAKB 262250Z VRB02KT 8000 SCT060 16/09 Q1016 RMK A3001 BLU BLU
cycle: 23

Station Type Date Time Source
OAKB TAF 2020/09/26 18:05 UTC NOAA

TAF OAKB 261705Z 2618/2718 09012KT 9999 FEW100 FEW150
BECMG 2619/2621 VRB02KT
TEMPO 2622/2704 5000 HZ
BECMG 2702/2704 SCT050
BECMG 2710/2712 11012KT SCT070 SCT100
TEMPO 2712/2718 12015G25KT

Example: see airport list